createdAt,value
2022-07-30T00:00:27.376Z,3.10
2022-07-30T00:02:55.350Z,2.87
2022-07-30T00:05:23.307Z,3.13
2022-07-30T00:07:51.244Z,3.77
2022-07-30T00:10:20.678Z,3.17
2022-07-30T00:12:49.085Z,3.13
2022-07-30T00:15:17.636Z,3.30
2022-07-30T00:17:49.134Z,3.60
2022-07-30T00:20:17.494Z,2.93
2022-07-30T00:22:46.886Z,3.83
2022-07-30T00:25:14.862Z,4.07
2022-07-30T00:27:43.111Z,3.90
2022-07-30T00:30:11.911Z,3.40
2022-07-30T00:32:39.854Z,3.50
2022-07-30T00:35:11.263Z,3.80
2022-07-30T00:37:39.147Z,3.73
2022-07-30T00:40:08.772Z,3.70
2022-07-30T00:42:41.328Z,3.50
2022-07-30T00:45:11.136Z,3.50
2022-07-30T00:47:40.076Z,4.37
2022-07-30T00:50:11.118Z,3.90
2022-07-30T00:52:39.773Z,4.67
2022-07-30T00:55:09.196Z,5.20
2022-07-30T00:57:37.401Z,4.50
2022-07-30T01:00:10.555Z,4.27
2022-07-30T01:02:38.786Z,5.40
2022-07-30T01:05:09.478Z,4.90
2022-07-30T01:07:37.685Z,5.20
2022-07-30T01:10:06.715Z,6.20
2022-07-30T01:12:35.585Z,5.60
2022-07-30T01:15:06.051Z,5.87
2022-07-30T01:17:34.972Z,5.03
2022-07-30T01:20:05.836Z,5.30
2022-07-30T01:22:47.470Z,6.47
2022-07-30T01:25:20.403Z,6.20
2022-07-30T01:27:52.410Z,6.63
2022-07-30T01:30:23.771Z,5.93
2022-07-30T01:32:52.723Z,5.97
2022-07-30T01:35:21.969Z,5.67
2022-07-30T01:37:50.737Z,6.80
2022-07-30T01:40:19.001Z,7.10
2022-07-30T01:42:53.479Z,7.80
2022-07-30T01:45:21.843Z,6.80
2022-07-30T01:47:51.520Z,6.13
2022-07-30T01:50:21.345Z,5.83
2022-07-30T01:52:50.932Z,6.30
2022-07-30T01:55:20.653Z,6.20
2022-07-30T01:57:50.218Z,5.70
2022-07-30T02:00:18.581Z,6.40
2022-07-30T02:02:46.881Z,5.50
2022-07-30T02:05:14.986Z,5.20
2022-07-30T02:07:47.719Z,4.87
2022-07-30T02:10:19.457Z,4.57
2022-07-30T02:12:52.861Z,5.83
2022-07-30T02:15:27.358Z,4.90
2022-07-30T02:17:59.643Z,4.70
2022-07-30T02:20:29.692Z,4.60
2022-07-30T02:23:03.327Z,5.03
2022-07-30T02:25:33.818Z,6.37
2022-07-30T02:28:05.097Z,6.23
2022-07-30T02:30:36.309Z,6.87
2022-07-30T02:33:08.396Z,4.67
2022-07-30T02:35:37.337Z,5.10
2022-07-30T02:38:05.681Z,4.60
2022-07-30T02:40:33.997Z,4.23
2022-07-30T02:43:03.490Z,5.97
2022-07-30T02:45:32.457Z,6.23
2022-07-30T02:48:02.500Z,6.67
2022-07-30T02:50:31.183Z,7.70
2022-07-30T02:53:00.602Z,7.20
2022-07-30T02:55:30.064Z,8.53
2022-07-30T02:57:59.030Z,7.40
2022-07-30T03:00:28.913Z,7.77
2022-07-30T03:02:57.461Z,7.87
2022-07-30T03:05:26.360Z,7.37
2022-07-30T03:07:55.852Z,8.30
2022-07-30T03:10:24.241Z,7.97
2022-07-30T03:12:52.710Z,7.97
2022-07-30T03:15:20.925Z,8.00
2022-07-30T03:17:55.462Z,8.50
2022-07-30T03:20:27.558Z,7.90
2022-07-30T03:22:56.586Z,8.93
2022-07-30T03:25:27.340Z,9.40
2022-07-30T03:27:57.821Z,9.00
2022-07-30T03:30:27.196Z,9.47
2022-07-30T03:32:57.428Z,8.83
2022-07-30T03:35:26.460Z,8.27
2022-07-30T03:37:55.196Z,9.70
2022-07-30T03:40:23.745Z,9.57
2022-07-30T03:42:52.113Z,8.87
2022-07-30T03:45:20.310Z,8.20
2022-07-30T03:47:48.904Z,8.87
2022-07-30T03:50:18.346Z,11.80
2022-07-30T03:52:47.285Z,11.50
2022-07-30T03:55:15.469Z,9.87
2022-07-30T03:57:43.445Z,10.17
2022-07-30T04:00:15.349Z,8.40
2022-07-30T04:02:43.721Z,7.07
2022-07-30T04:05:13.220Z,6.03
2022-07-30T04:07:45.338Z,7.40
2022-07-30T04:10:13.642Z,5.43
2022-07-30T04:12:41.633Z,6.53
2022-07-30T04:16:38.390Z,6.90
2022-07-30T04:18:03.306Z,6.90
2022-07-30T04:20:35.917Z,7.27
2022-07-30T04:23:05.713Z,5.83
2022-07-30T04:25:34.489Z,6.43
2022-07-30T04:28:03.610Z,5.77
2022-07-30T04:30:33.353Z,5.20
2022-07-30T04:33:01.492Z,4.90
2022-07-30T04:35:51.256Z,4.60
2022-07-30T04:38:19.575Z,3.90
2022-07-30T04:40:47.953Z,4.53
2022-07-30T04:43:15.924Z,4.10
2022-07-30T04:45:44.702Z,3.93
2022-07-30T04:48:12.667Z,4.30
2022-07-30T04:50:43.004Z,4.30
2022-07-30T04:53:11.491Z,3.40
2022-07-30T04:55:43.795Z,3.87
2022-07-30T04:58:12.273Z,3.10
2022-07-30T05:00:41.699Z,3.00
2022-07-30T05:03:13.698Z,4.40
2022-07-30T05:05:41.937Z,5.87
2022-07-30T05:08:10.295Z,7.37
2022-07-30T05:10:40.678Z,6.57
2022-07-30T05:13:13.144Z,5.80
2022-07-30T05:15:41.336Z,5.23
2022-07-30T05:18:09.752Z,5.00
2022-07-30T05:20:38.118Z,5.20
2022-07-30T05:23:06.296Z,5.70
2022-07-30T05:25:34.245Z,5.30
2022-07-30T05:28:03.628Z,4.40
2022-07-30T05:30:31.590Z,4.73
2022-07-30T05:33:02.792Z,4.90
2022-07-30T05:35:31.833Z,4.60
2022-07-30T05:38:00.500Z,5.30
2022-07-30T05:40:28.477Z,4.80
2022-07-30T05:42:56.537Z,5.10
2022-07-30T05:45:25.900Z,4.60
2022-07-30T05:47:53.879Z,3.20
2022-07-30T05:50:21.869Z,2.77
2022-07-30T05:52:49.791Z,2.23
2022-07-30T05:55:17.770Z,2.50
2022-07-30T05:57:45.675Z,2.27
2022-07-30T06:00:16.197Z,2.40
2022-07-30T06:02:45.571Z,2.00
2022-07-30T06:05:13.553Z,1.50
2022-07-30T06:07:41.471Z,1.20
2022-07-30T06:10:09.957Z,1.27
2022-07-30T06:12:37.893Z,1.07
2022-07-30T06:15:06.697Z,1.07
2022-07-30T06:17:41.232Z,1.20
2022-07-30T06:20:12.192Z,1.00
2022-07-30T06:22:40.230Z,1.00
2022-07-30T06:25:09.324Z,1.10
2022-07-30T06:27:39.683Z,1.00
2022-07-30T06:30:09.640Z,1.10
2022-07-30T06:32:37.906Z,1.30
2022-07-30T06:35:06.544Z,1.20
2022-07-30T06:38:06.210Z,1.20
2022-07-30T06:40:24.121Z,1.30
2022-07-30T06:42:52.040Z,1.07
2022-07-30T06:45:20.161Z,1.50
2022-07-30T06:47:48.157Z,1.30
2022-07-30T06:50:16.104Z,1.00
2022-07-30T06:52:45.457Z,0.93
2022-07-30T06:55:13.359Z,1.33
2022-07-30T06:57:42.636Z,1.20
2022-07-30T07:00:12.028Z,1.27
2022-07-30T07:02:42.592Z,1.00
2022-07-30T07:05:11.000Z,1.17
2022-07-30T07:07:44.506Z,0.83
2022-07-30T07:10:21.778Z,1.17
2022-07-30T07:12:49.734Z,1.10
2022-07-30T07:15:17.800Z,1.00
2022-07-30T07:17:45.760Z,1.20
2022-07-30T07:20:13.710Z,1.50
2022-07-30T07:22:41.734Z,1.40
2022-07-30T07:25:10.331Z,1.17
2022-07-30T07:27:39.720Z,1.40
2022-07-30T07:30:08.917Z,1.53
2022-07-30T07:32:37.313Z,1.70
2022-07-30T07:35:05.814Z,1.77
2022-07-30T07:37:33.893Z,1.87
2022-07-30T07:40:01.843Z,1.77
2022-07-30T07:42:29.793Z,2.00
2022-07-30T07:44:59.179Z,2.70
2022-07-30T07:47:27.145Z,1.90
2022-07-30T07:49:56.597Z,2.10
2022-07-30T07:52:24.586Z,2.17
2022-07-30T07:54:52.546Z,2.40
2022-07-30T07:57:20.506Z,2.30
2022-07-30T07:59:48.946Z,2.13
2022-07-30T08:02:19.607Z,1.97
2022-07-30T08:04:47.714Z,2.30
2022-07-30T08:07:15.727Z,2.20
2022-07-30T08:09:44.607Z,2.23
2022-07-30T08:12:13.123Z,3.40
2022-07-30T08:14:41.089Z,2.90
2022-07-30T08:17:09.557Z,2.73
2022-07-30T08:19:39.097Z,2.90
2022-07-30T08:22:07.110Z,3.40
2022-07-30T08:24:35.179Z,4.00
2022-07-30T08:27:03.569Z,3.40
2022-07-30T08:29:31.930Z,4.00
2022-07-30T08:32:00.172Z,3.10
2022-07-30T08:34:29.365Z,3.60
2022-07-30T08:36:58.735Z,4.23
2022-07-30T08:39:26.753Z,4.00
2022-07-30T08:41:55.385Z,4.40
2022-07-30T08:44:24.285Z,3.50
2022-07-30T08:46:56.267Z,3.93
2022-07-30T08:49:24.409Z,4.20
2022-07-30T08:51:52.693Z,7.60
2022-07-30T08:54:22.216Z,5.00
2022-07-30T08:56:50.509Z,4.30
2022-07-30T08:59:18.701Z,4.40
2022-07-30T09:01:46.782Z,5.10
2022-07-30T09:04:15.375Z,4.40
2022-07-30T09:06:43.368Z,4.90
2022-07-30T09:09:11.317Z,5.37
2022-07-30T09:11:40.728Z,6.30
2022-07-30T09:14:10.649Z,5.23
2022-07-30T09:16:38.631Z,5.33
2022-07-30T09:19:15.355Z,4.83
2022-07-30T09:21:44.157Z,4.33
2022-07-30T09:24:13.457Z,4.30
2022-07-30T09:26:57.355Z,4.80
2022-07-30T09:29:28.117Z,4.13
2022-07-30T09:31:57.902Z,4.70
2022-07-30T09:34:27.752Z,4.40
2022-07-30T09:36:56.397Z,4.20
2022-07-30T09:39:32.256Z,4.50
2022-07-30T09:42:02.067Z,4.47
2022-07-30T09:44:31.051Z,4.83
2022-07-30T09:46:59.603Z,3.77
2022-07-30T09:49:29.716Z,4.90
2022-07-30T09:51:57.939Z,4.43
2022-07-30T09:54:26.910Z,4.10
2022-07-30T09:57:26.538Z,11.90
2022-07-30T09:59:56.631Z,5.17
2022-07-30T10:02:32.201Z,4.80
2022-07-30T10:05:14.375Z,4.20
2022-07-30T10:07:51.212Z,5.10
2022-07-30T10:10:21.811Z,5.33
2022-07-30T10:12:58.854Z,4.73
2022-07-30T10:15:30.211Z,5.30
2022-07-30T10:18:01.213Z,5.00
2022-07-30T10:20:29.570Z,4.37
2022-07-30T10:23:07.756Z,5.30
2022-07-30T10:25:49.187Z,5.57
2022-07-30T10:28:25.318Z,5.67
2022-07-30T10:30:54.286Z,5.17
2022-07-30T10:33:34.592Z,5.47
2022-07-30T10:36:05.895Z,5.60
2022-07-30T10:38:43.090Z,5.50
2022-07-30T10:41:22.271Z,5.20
2022-07-30T10:44:25.277Z,5.43
2022-07-30T10:46:59.744Z,5.17
2022-07-30T10:49:40.603Z,5.30
2022-07-30T10:52:09.996Z,5.07
2022-07-30T10:54:40.200Z,5.60
2022-07-30T10:57:14.918Z,5.77
2022-07-30T11:00:12.115Z,5.07
2022-07-30T11:02:41.623Z,5.87
2022-07-30T11:05:27.180Z,4.60
2022-07-30T11:08:37.767Z,5.40
2022-07-30T11:12:04.859Z,5.10
2022-07-30T11:15:06.640Z,4.80
2022-07-30T11:18:02.366Z,5.40
2022-07-30T11:20:31.578Z,5.23
2022-07-30T11:23:14.415Z,5.60
2022-07-30T11:25:51.614Z,5.37
2022-07-30T11:28:43.976Z,5.57
2022-07-30T11:31:56.242Z,5.40
2022-07-30T11:34:30.779Z,5.77
2022-07-30T11:37:18.942Z,6.37
2022-07-30T11:40:13.362Z,6.20
2022-07-30T11:42:43.599Z,6.07
2022-07-30T11:45:29.450Z,6.73
2022-07-30T11:48:00.994Z,6.00
2022-07-30T11:50:32.332Z,6.20
2022-07-30T11:53:01.756Z,5.40
2022-07-30T11:55:31.418Z,6.03
2022-07-30T11:58:00.878Z,6.30
2022-07-30T12:00:36.367Z,5.73
2022-07-30T12:03:09.948Z,5.53
2022-07-30T12:05:39.461Z,5.30
2022-07-30T12:08:07.986Z,5.57
2022-07-30T12:10:39.124Z,5.60
2022-07-30T12:13:11.419Z,6.57
2022-07-30T12:15:42.441Z,6.10
2022-07-30T12:18:28.753Z,4.80
2022-07-30T12:21:00.049Z,5.90
2022-07-30T12:23:28.428Z,5.80
2022-07-30T12:25:56.733Z,5.30
2022-07-30T12:28:28.100Z,6.07
2022-07-30T12:30:57.169Z,5.93
2022-07-30T12:33:25.788Z,5.70
2022-07-30T12:35:54.976Z,6.03
2022-07-30T12:38:25.636Z,6.47
2022-07-30T12:40:55.475Z,5.80
2022-07-30T12:43:46.582Z,6.37
2022-07-30T12:46:16.499Z,5.23
2022-07-30T12:48:52.010Z,6.30
2022-07-30T12:51:20.353Z,5.23
2022-07-30T12:53:50.284Z,5.63
2022-07-30T12:56:21.225Z,5.97
2022-07-30T12:58:49.444Z,6.10
2022-07-30T13:01:19.122Z,6.50
2022-07-30T13:03:47.119Z,6.87
2022-07-30T13:06:16.901Z,11.80
2022-07-30T13:08:51.331Z,9.83
2022-07-30T13:11:20.073Z,8.10
2022-07-30T13:13:48.388Z,8.77
2022-07-30T13:16:16.395Z,8.27
2022-07-30T13:18:44.483Z,7.80
2022-07-30T13:21:12.593Z,8.20
2022-07-30T13:23:41.838Z,8.50
2022-07-30T13:26:12.248Z,7.27
2022-07-30T13:28:40.684Z,6.90
2022-07-30T13:31:09.585Z,6.80
2022-07-30T15:06:42.319Z,5.97
2022-07-30T15:09:10.501Z,5.30
2022-07-30T15:12:04.248Z,5.80
2022-07-30T15:14:27.148Z,6.10
2022-07-30T15:16:59.488Z,5.53
2022-07-30T15:19:31.797Z,5.67
2022-07-30T15:22:02.705Z,6.43
2022-07-30T15:24:31.819Z,5.27
2022-07-30T15:27:00.079Z,5.43
2022-07-30T15:29:30.119Z,6.17
2022-07-30T15:32:00.195Z,5.10
2022-07-30T15:34:33.878Z,5.50
2022-07-30T15:37:03.559Z,4.63
2022-07-30T15:39:33.663Z,4.23
2022-07-30T15:42:02.499Z,5.07
2022-07-30T15:44:30.788Z,4.70
2022-07-30T15:46:58.988Z,4.90
2022-07-30T15:49:27.069Z,4.63
2022-07-30T15:51:56.052Z,4.80
2022-07-30T15:54:26.714Z,4.80
2022-07-30T15:57:01.127Z,4.40
2022-07-30T15:59:29.973Z,3.60
2022-07-30T16:01:58.033Z,4.70
2022-07-30T16:04:31.356Z,4.10
2022-07-30T16:07:00.525Z,3.70
2022-07-30T16:09:30.230Z,4.20
2022-07-30T16:11:58.280Z,3.37
2022-07-30T16:14:26.636Z,3.97
2022-07-30T16:16:54.655Z,3.60
2022-07-30T16:19:22.691Z,3.70
2022-07-30T16:21:50.672Z,4.10
2022-07-30T16:24:18.719Z,4.17
2022-07-30T16:26:48.089Z,4.60
2022-07-30T16:29:15.996Z,5.10
2022-07-30T16:31:43.961Z,4.93
2022-07-30T16:34:11.909Z,5.90
2022-07-30T16:36:39.887Z,5.20
2022-07-30T16:39:07.878Z,6.03
2022-07-30T16:41:35.885Z,5.77
2022-07-30T16:44:05.833Z,5.50
2022-07-30T16:46:33.755Z,5.50
2022-07-30T16:49:01.735Z,6.37
2022-07-30T16:51:30.530Z,5.27
2022-07-30T16:53:58.477Z,5.13
2022-07-30T16:56:26.517Z,5.90
2022-07-30T16:58:54.432Z,5.40
2022-07-30T17:01:23.861Z,5.80
2022-07-30T17:03:51.832Z,5.23
2022-07-30T17:06:19.761Z,6.10
2022-07-30T17:08:48.764Z,5.30
2022-07-30T17:11:46.659Z,5.97
2022-07-30T17:14:05.206Z,5.27
2022-07-30T17:16:34.471Z,5.40
2022-07-30T17:19:09.268Z,4.97
2022-07-30T17:21:38.997Z,4.93
2022-07-30T17:24:11.297Z,4.73
2022-07-30T17:26:42.942Z,4.30
2022-07-30T17:29:14.239Z,4.87
2022-07-30T17:31:44.781Z,4.13
2022-07-30T17:34:14.052Z,4.57
2022-07-30T17:36:50.213Z,4.53
2022-07-30T17:40:24.772Z,3.83
2022-07-30T17:42:08.794Z,3.93
2022-07-30T17:44:36.931Z,3.83
2022-07-30T17:47:11.015Z,3.77
2022-07-30T17:49:41.920Z,4.13
2022-07-30T17:52:10.026Z,3.43
2022-07-30T17:54:38.021Z,3.30
2022-07-30T17:57:06.268Z,3.87
2022-07-30T17:59:34.302Z,2.83
2022-07-30T18:02:04.300Z,3.67
2022-07-30T18:04:34.928Z,4.17
2022-07-30T18:07:03.156Z,3.60
2022-07-30T18:09:39.116Z,4.47
2022-07-30T18:12:08.669Z,4.00
2022-07-30T18:14:36.603Z,4.10
2022-07-30T18:17:05.244Z,4.57
2022-07-30T18:19:34.585Z,4.90
2022-07-30T18:22:03.134Z,4.50
2022-07-30T18:24:32.600Z,4.57
2022-07-30T18:27:00.570Z,4.50
2022-07-30T18:29:28.581Z,4.90
2022-07-30T18:31:56.878Z,4.90
2022-07-30T18:34:24.831Z,5.00
2022-07-30T18:36:54.147Z,5.07
2022-07-30T18:39:22.060Z,5.50
2022-07-30T18:41:50.013Z,5.80
2022-07-30T18:44:17.939Z,5.20
2022-07-30T18:46:45.944Z,5.77
2022-07-30T18:49:35.540Z,5.10
2022-07-30T18:52:04.364Z,5.33
2022-07-30T18:54:32.512Z,5.30
2022-07-30T18:57:00.456Z,5.40
2022-07-30T18:59:28.444Z,5.20
2022-07-30T19:01:56.376Z,5.30
2022-07-30T19:04:24.364Z,5.63
2022-07-30T19:06:52.348Z,5.40
2022-07-30T19:09:21.955Z,6.50
2022-07-30T19:11:49.906Z,5.27
2022-07-30T19:14:17.980Z,5.50
2022-07-30T19:16:46.589Z,5.90
2022-07-30T19:19:16.403Z,6.80
2022-07-30T19:21:44.393Z,6.17
2022-07-30T19:24:12.913Z,7.23
2022-07-30T19:26:42.307Z,6.27
2022-07-30T19:29:10.325Z,6.07
2022-07-30T19:31:38.279Z,7.60
2022-07-30T19:34:07.144Z,7.47
2022-07-30T19:36:35.144Z,7.13
2022-07-30T19:39:07.683Z,7.13
2022-07-30T19:41:40.659Z,7.23
2022-07-30T19:44:12.109Z,7.00
2022-07-30T19:46:41.350Z,6.90
2022-07-30T19:49:09.743Z,7.00
2022-07-30T19:52:10.012Z,6.27
2022-07-30T19:54:26.794Z,5.53
2022-07-30T19:56:54.757Z,5.90
2022-07-30T19:59:45.305Z,5.47
2022-07-30T20:02:13.577Z,5.30
2022-07-30T20:04:41.774Z,8.37
2022-07-30T20:07:11.870Z,5.67
2022-07-30T20:09:42.690Z,5.70
2022-07-30T20:12:10.908Z,5.67
2022-07-30T20:14:43.335Z,5.30
2022-07-30T20:17:11.646Z,5.50
2022-07-30T20:19:47.569Z,5.50
2022-07-30T20:22:16.217Z,4.90
2022-07-30T20:24:44.895Z,5.40
2022-07-30T20:27:37.345Z,4.90
2022-07-30T20:30:02.407Z,5.07
2022-07-30T20:32:30.465Z,5.30
2022-07-30T20:34:58.446Z,5.77
2022-07-30T20:40:14.788Z,5.97
2022-07-30T20:42:43.702Z,6.00
2022-07-30T20:45:13.729Z,4.83
2022-07-30T20:47:41.668Z,6.00
2022-07-30T20:50:14.936Z,5.27
2022-07-30T20:52:46.370Z,5.17
2022-07-30T20:55:16.792Z,5.43
2022-07-30T20:58:01.949Z,5.10
2022-07-30T21:00:34.832Z,5.40
2022-07-30T21:03:03.177Z,6.03
2022-07-30T21:05:31.504Z,6.90
2022-07-30T21:07:59.984Z,6.03
2022-07-30T21:10:28.905Z,5.57
2022-07-30T21:12:58.692Z,5.83
2022-07-30T21:15:32.742Z,5.50
2022-07-30T21:18:02.585Z,5.63
2022-07-30T21:20:31.281Z,5.00
2022-07-30T21:23:05.250Z,6.93
2022-07-30T21:25:33.518Z,6.60
2022-07-30T21:28:02.777Z,6.43
2022-07-30T21:30:32.721Z,6.77
2022-07-30T21:33:02.330Z,6.37
2022-07-30T21:35:31.863Z,6.00
2022-07-30T21:38:00.433Z,6.80
2022-07-30T21:40:29.440Z,6.97
2022-07-30T21:42:57.663Z,6.43
2022-07-30T21:45:37.749Z,6.27
2022-07-30T21:48:10.848Z,7.57
2022-07-30T21:50:39.997Z,8.13
2022-07-30T21:53:08.223Z,7.20
2022-07-30T21:55:52.605Z,7.60
2022-07-30T21:58:25.690Z,8.00
2022-07-30T22:04:01.224Z,7.60
2022-07-30T22:06:37.805Z,8.33
2022-07-30T22:09:18.240Z,7.30
2022-07-30T22:11:54.445Z,8.33
2022-07-30T22:14:22.459Z,7.87
2022-07-30T22:16:50.688Z,7.80
2022-07-30T22:19:21.797Z,8.33
2022-07-30T22:21:50.966Z,8.20
2022-07-30T22:24:29.509Z,8.47
2022-07-30T22:27:00.045Z,8.77
2022-07-30T22:29:34.280Z,9.57
2022-07-30T22:32:04.602Z,9.40
2022-07-30T22:34:34.127Z,9.17
2022-07-30T22:37:02.065Z,9.83
2022-07-30T22:39:31.991Z,9.83
2022-07-30T22:42:17.960Z,10.20
2022-07-30T22:44:47.347Z,8.77
2022-07-30T22:47:18.958Z,10.10
2022-07-30T22:52:39.371Z,9.97
2022-07-30T22:55:10.236Z,11.07
2022-07-30T22:57:40.287Z,10.30
2022-07-30T23:00:12.300Z,11.07
2022-07-30T23:02:40.865Z,9.90
2022-07-30T23:05:10.724Z,10.50
2022-07-30T23:07:39.934Z,10.67
2022-07-30T23:10:17.028Z,11.80
2022-07-30T23:12:18.232Z,5.17
2022-07-30T23:12:32.423Z,7.60
2022-07-30T23:12:33.728Z,9.83
2022-07-30T23:12:47.717Z,11.17
2022-07-30T23:15:15.895Z,12.20
2022-07-30T23:17:44.556Z,12.50
2022-07-30T23:20:15.766Z,11.13
2022-07-30T23:22:43.814Z,12.67
2022-07-30T23:25:13.034Z,12.00
2022-07-30T23:27:41.834Z,11.37
2022-07-30T23:30:11.952Z,13.30
2022-07-30T23:32:40.957Z,11.70
2022-07-30T23:35:10.149Z,11.80
2022-07-30T23:37:48.750Z,12.50
2022-07-30T23:40:18.470Z,12.53
2022-07-30T23:42:46.722Z,11.10
2022-07-30T23:45:14.685Z,11.07
2022-07-30T23:48:00.501Z,10.53
2022-07-30T23:50:31.133Z,10.53
2022-07-30T23:53:00.557Z,10.73
2022-07-30T23:55:28.718Z,13.03
2022-07-30T23:57:56.727Z,11.73
